Gilmour, Indiana
Current Conditions -  °F | °C
As of 10:53 PM on Saturday 25 Oct 2014 (Local Time) from KHUF Reporting Station
Clear Clear  
Wind Chill: 61°   Ceiling: Unl
Heat Index: 61°   Visibility: 10mi
Dew Point: 45°   Wind: 6mph
Humidity: 56%   Direction: 290°WNW
Pressure: 29.98"   Gusts: NA
Location:  39.2016°N, 87.1874°W
Report Text: KHUF 260253Z 29005KT 10SM CLR 16/07 A2998 RMK AO2 SLP152 T01610072 53007
Loading
Personal Weather Stations






























Interactive Weather Map
Tropical Storm Tracking
New forecast layout! Learn more

10-Day Weather Forecast

Advertisements
Track Severe Weather on mobile